createdAt,value
2019-04-29T00:00:43.829Z,11.39
2019-04-29T00:02:51.010Z,11.39
2019-04-29T00:04:59.334Z,11.40
2019-04-29T00:07:07.565Z,11.39
2019-04-29T00:09:19.268Z,11.37
2019-04-29T00:11:27.002Z,11.37
2019-04-29T00:13:34.191Z,11.38
2019-04-29T00:15:45.709Z,11.36
2019-04-29T00:17:58.082Z,11.37
2019-04-29T00:20:23.689Z,11.38
2019-04-29T00:22:32.078Z,11.39
2019-04-29T00:24:38.992Z,11.41
2019-04-29T00:26:46.430Z,11.42
2019-04-29T00:28:53.700Z,11.43
2019-04-29T00:31:01.719Z,11.41
2019-04-29T00:33:09.359Z,11.41
2019-04-29T00:35:16.638Z,11.38
2019-04-29T00:37:25.486Z,11.38
2019-04-29T00:39:37.136Z,11.40
2019-04-29T00:41:47.725Z,11.42
2019-04-29T00:43:56.562Z,11.43
2019-04-29T00:46:04.017Z,11.43
2019-04-29T00:48:11.581Z,11.45
2019-04-29T00:50:19.387Z,11.46
2019-04-29T00:52:28.187Z,11.46
2019-04-29T00:54:38.588Z,11.44
2019-04-29T00:56:45.924Z,11.41
2019-04-29T00:58:56.449Z,11.46
2019-04-29T01:01:05.519Z,11.46
2019-04-29T01:03:12.541Z,11.44
2019-04-29T01:05:19.750Z,11.44
2019-04-29T01:07:26.757Z,11.45
2019-04-29T01:09:35.090Z,11.45
2019-04-29T01:11:42.747Z,11.46
2019-04-29T01:13:50.115Z,11.45
2019-04-29T01:15:57.381Z,11.47
2019-04-29T01:18:04.837Z,11.45
2019-04-29T01:20:14.032Z,11.44
2019-04-29T01:22:22.150Z,11.44
2019-04-29T01:24:30.528Z,11.43
2019-04-29T01:26:43.055Z,11.41
2019-04-29T01:28:51.467Z,11.40
2019-04-29T01:31:03.498Z,11.39
2019-04-29T01:33:10.600Z,11.39
2019-04-29T01:35:17.675Z,11.38
2019-04-29T01:37:26.408Z,11.37
2019-04-29T01:39:41.365Z,11.36
2019-04-29T01:41:50.506Z,11.37
2019-04-29T01:44:02.749Z,11.37
2019-04-29T01:46:09.953Z,11.36
2019-04-29T01:48:17.414Z,11.35
2019-04-29T01:50:24.082Z,11.34
2019-04-29T01:52:31.558Z,11.35
2019-04-29T01:54:38.585Z,11.34
2019-04-29T01:56:45.629Z,11.34
2019-04-29T01:58:53.063Z,11.33
2019-04-29T02:01:00.999Z,11.33
2019-04-29T02:03:08.446Z,11.33
2019-04-29T02:05:15.586Z,11.33
2019-04-29T02:07:23.224Z,11.33
2019-04-29T02:09:32.123Z,11.33
2019-04-29T02:11:42.029Z,11.33
2019-04-29T02:13:49.243Z,11.33
2019-04-29T02:15:56.328Z,11.33
2019-04-29T02:18:03.549Z,11.35
2019-04-29T02:20:11.365Z,11.36
2019-04-29T02:22:28.737Z,11.34
2019-04-29T02:24:37.452Z,11.31
2019-04-29T02:26:45.154Z,11.29
2019-04-29T02:28:52.858Z,11.29
2019-04-29T02:31:01.874Z,11.29
2019-04-29T02:33:09.428Z,11.32
2019-04-29T02:35:16.158Z,11.33
2019-04-29T02:37:27.801Z,11.36
2019-04-29T02:39:36.586Z,11.33
2019-04-29T02:41:48.768Z,11.32
2019-04-29T02:43:58.408Z,11.34
2019-04-29T02:46:06.382Z,11.32
2019-04-29T02:50:28.783Z,11.29
2019-04-29T02:52:37.317Z,11.30
2019-04-29T02:54:45.117Z,11.28
2019-04-29T02:56:57.275Z,11.28
2019-04-29T02:59:09.645Z,11.26
2019-04-29T03:01:38.255Z,11.26
2019-04-29T03:03:47.153Z,11.25
2019-04-29T03:06:00.367Z,11.21
2019-04-29T03:08:07.221Z,11.22
2019-04-29T03:10:14.844Z,11.19
2019-04-29T03:12:22.792Z,11.20
2019-04-29T03:14:30.796Z,11.13
2019-04-29T03:16:38.157Z,11.11
2019-04-29T03:18:49.798Z,11.09
2019-04-29T03:20:58.955Z,11.08
2019-04-29T03:23:11.069Z,11.07
2019-04-29T03:25:18.189Z,11.03
2019-04-29T03:27:27.392Z,10.99
2019-04-29T03:29:34.402Z,10.96
2019-04-29T03:31:42.277Z,10.90
2019-04-29T03:33:50.492Z,10.89
2019-04-29T03:35:57.998Z,10.87
2019-04-29T03:38:05.639Z,10.86
2019-04-29T03:40:13.013Z,10.84
2019-04-29T03:42:20.008Z,10.76
2019-04-29T03:44:27.602Z,10.74
2019-04-29T03:46:34.681Z,10.67
2019-04-29T03:48:41.963Z,10.65
2019-04-29T03:50:48.985Z,10.63
2019-04-29T03:52:56.052Z,10.61
2019-04-29T03:55:03.699Z,10.57
2019-04-29T03:57:12.902Z,10.56
2019-04-29T03:59:20.593Z,10.55
2019-04-29T04:01:42.254Z,10.55
2019-04-29T04:03:51.260Z,10.54
2019-04-29T04:06:16.245Z,10.52
2019-04-29T04:08:25.200Z,10.50
2019-04-29T04:10:32.059Z,10.44
2019-04-29T04:12:39.050Z,10.44
2019-04-29T04:15:07.237Z,10.41
2019-04-29T04:17:20.238Z,10.35
2019-04-29T04:19:25.833Z,10.35
2019-04-29T04:21:33.252Z,10.37
2019-04-29T04:23:40.661Z,10.39
2019-04-29T04:25:48.210Z,10.39
2019-04-29T04:27:55.599Z,10.39
2019-04-29T04:30:02.993Z,10.39
2019-04-29T04:32:10.168Z,10.40
2019-04-29T04:34:17.241Z,10.43
2019-04-29T04:36:24.684Z,10.46
2019-04-29T04:38:31.698Z,10.48
2019-04-29T04:40:46.971Z,10.45
2019-04-29T04:42:53.996Z,10.43
2019-04-29T04:45:01.092Z,10.45
2019-04-29T04:47:08.598Z,10.44
2019-04-29T04:49:16.079Z,10.49
2019-04-29T04:51:23.192Z,10.53
2019-04-29T04:53:30.530Z,10.52
2019-04-29T04:55:39.746Z,10.51
2019-04-29T04:57:47.708Z,10.52
2019-04-29T04:59:54.985Z,10.58
2019-04-29T05:02:02.170Z,10.67
2019-04-29T05:04:09.706Z,10.73
2019-04-29T05:06:16.969Z,10.86
2019-04-29T05:08:24.054Z,10.90
2019-04-29T05:10:31.357Z,10.90
2019-04-29T05:12:38.447Z,10.88
2019-04-29T05:14:45.150Z,10.92
2019-04-29T05:16:52.453Z,10.92
2019-04-29T05:18:59.915Z,10.99
2019-04-29T05:21:07.248Z,11.05
2019-04-29T05:23:14.797Z,11.17
2019-04-29T05:25:22.239Z,11.23
2019-04-29T05:27:29.435Z,11.33
2019-04-29T05:29:37.699Z,11.33
2019-04-29T05:31:45.537Z,11.43
2019-04-29T05:33:53.112Z,11.46
2019-04-29T05:36:07.024Z,11.29
2019-04-29T05:38:19.236Z,11.21
2019-04-29T05:40:40.455Z,11.11
2019-04-29T05:42:48.296Z,11.20
2019-04-29T05:45:09.210Z,11.53
2019-04-29T05:47:18.105Z,12.03
2019-04-29T05:49:29.777Z,12.48
2019-04-29T05:51:50.568Z,12.74
2019-04-29T05:54:01.970Z,12.96
2019-04-29T05:56:09.260Z,12.76
2019-04-29T05:58:16.730Z,12.68
2019-04-29T06:00:24.282Z,12.71
2019-04-29T06:02:36.331Z,12.60
2019-04-29T06:04:40.634Z,12.39
2019-04-29T06:06:47.611Z,12.11
2019-04-29T06:08:55.224Z,11.93
2019-04-29T06:11:03.305Z,12.01
2019-04-29T06:13:10.453Z,12.12
2019-04-29T06:15:17.535Z,12.23
2019-04-29T06:17:33.655Z,12.32
2019-04-29T06:19:41.375Z,12.41
2019-04-29T06:21:48.783Z,12.42
2019-04-29T06:23:59.474Z,12.51
2019-04-29T06:26:05.076Z,12.52
2019-04-29T06:30:26.997Z,12.59
2019-04-29T06:32:33.727Z,12.56
2019-04-29T06:34:41.772Z,12.55
2019-04-29T06:36:49.646Z,12.55
2019-04-29T06:38:57.623Z,12.51
2019-04-29T06:41:05.530Z,12.47
2019-04-29T06:43:36.159Z,12.46
2019-04-29T06:45:44.487Z,12.52
2019-04-29T06:47:51.787Z,12.67
2019-04-29T06:49:58.776Z,12.62
2019-04-29T06:52:06.013Z,12.67
2019-04-29T06:54:12.994Z,12.79
2019-04-29T06:56:21.241Z,12.97
2019-04-29T06:58:28.342Z,13.11
2019-04-29T07:00:35.356Z,13.12
2019-04-29T07:02:45.452Z,13.13
2019-04-29T07:04:51.895Z,13.37
2019-04-29T07:06:59.103Z,13.35
2019-04-29T07:09:08.062Z,13.51
2019-04-29T07:11:15.206Z,13.65
2019-04-29T07:13:24.257Z,13.55
2019-04-29T07:15:31.285Z,13.64
2019-04-29T07:17:41.312Z,13.84
2019-04-29T07:19:48.219Z,14.00
2019-04-29T07:21:56.638Z,14.06
2019-04-29T07:24:04.083Z,14.24
2019-04-29T07:26:11.690Z,14.28
2019-04-29T07:28:18.678Z,14.33
2019-04-29T07:30:29.249Z,14.33
2019-04-29T07:32:35.605Z,14.45
2019-04-29T07:35:05.867Z,14.56
2019-04-29T07:37:13.033Z,14.62
2019-04-29T07:39:20.835Z,14.80
2019-04-29T07:41:27.999Z,14.80
2019-04-29T07:43:38.641Z,14.83
2019-04-29T07:46:03.712Z,14.91
2019-04-29T07:48:09.890Z,15.00
2019-04-29T07:50:17.481Z,14.96
2019-04-29T07:52:25.763Z,15.00
2019-04-29T07:54:32.960Z,15.01
2019-04-29T07:56:42.329Z,15.19
2019-04-29T07:58:51.379Z,15.49
2019-04-29T08:00:58.677Z,15.75
2019-04-29T08:03:08.687Z,15.76
2019-04-29T08:05:16.233Z,15.77
2019-04-29T08:07:30.689Z,15.83
2019-04-29T08:09:44.260Z,16.02
2019-04-29T08:11:49.489Z,16.06
2019-04-29T08:13:58.504Z,15.95
2019-04-29T08:16:05.803Z,15.90
2019-04-29T08:18:16.316Z,16.01
2019-04-29T08:20:22.736Z,15.97
2019-04-29T08:22:32.117Z,16.12
2019-04-29T08:24:39.051Z,16.19
2019-04-29T08:26:47.966Z,16.27
2019-04-29T08:29:00.313Z,16.34
2019-04-29T08:31:03.668Z,16.47
2019-04-29T08:33:12.291Z,16.54
2019-04-29T08:35:20.350Z,16.51
2019-04-29T08:37:27.761Z,16.50
2019-04-29T08:39:35.233Z,16.56
2019-04-29T08:41:43.535Z,16.57
2019-04-29T08:44:16.023Z,16.59
2019-04-29T08:46:13.074Z,16.78
2019-04-29T08:48:20.234Z,16.98
2019-04-29T08:50:27.928Z,17.06
2019-04-29T08:52:35.513Z,16.97
2019-04-29T08:54:43.355Z,16.91
2019-04-29T08:57:02.158Z,17.03
2019-04-29T08:58:59.631Z,17.19
2019-04-29T09:01:07.153Z,17.17
2019-04-29T09:03:14.178Z,17.18
2019-04-29T09:05:21.553Z,17.28
2019-04-29T09:07:28.474Z,17.42
2019-04-29T09:09:35.794Z,17.57
2019-04-29T09:11:43.546Z,17.57
2019-04-29T09:13:51.844Z,17.56
2019-04-29T09:15:58.794Z,17.62
2019-04-29T09:18:06.290Z,17.62
2019-04-29T09:20:14.104Z,17.74
2019-04-29T09:22:22.924Z,17.71
2019-04-29T09:24:30.034Z,17.87
2019-04-29T09:26:42.113Z,18.10
2019-04-29T09:28:49.908Z,18.24
2019-04-29T09:30:57.303Z,18.34
2019-04-29T09:33:04.574Z,18.44
2019-04-29T09:35:11.854Z,18.40
2019-04-29T09:37:18.739Z,18.49
2019-04-29T09:39:27.628Z,18.42
2019-04-29T09:41:36.414Z,18.47
2019-04-29T09:43:54.443Z,18.52
2019-04-29T09:46:03.250Z,18.56
2019-04-29T09:48:11.026Z,18.53
2019-04-29T09:50:20.815Z,18.54
2019-04-29T09:52:32.864Z,18.68
2019-04-29T09:54:40.186Z,18.81
2019-04-29T09:56:47.564Z,18.96
2019-04-29T09:58:56.240Z,18.98
2019-04-29T10:01:19.133Z,18.90
2019-04-29T10:03:28.331Z,18.80
2019-04-29T10:05:40.749Z,18.87
2019-04-29T10:07:48.301Z,18.95
2019-04-29T10:09:57.399Z,19.08
2019-04-29T10:12:04.435Z,19.31
2019-04-29T10:14:13.578Z,19.10
2019-04-29T10:16:39.056Z,19.23
2019-04-29T10:18:47.808Z,19.40
2019-04-29T10:21:02.592Z,19.45
2019-04-29T10:27:24.328Z,19.60
2019-04-29T10:29:32.966Z,19.58
2019-04-29T10:31:44.316Z,19.64
2019-04-29T10:33:54.958Z,19.87
2019-04-29T10:36:01.665Z,19.88
2019-04-29T10:38:08.834Z,19.83
2019-04-29T10:40:56.486Z,19.87
2019-04-29T10:43:11.458Z,19.91
2019-04-29T10:45:22.204Z,19.96
2019-04-29T10:47:34.582Z,19.78
2019-04-29T10:49:43.825Z,19.83
2019-04-29T10:51:51.024Z,19.83
2019-04-29T10:53:58.445Z,19.91
2019-04-29T10:56:07.013Z,19.85
2019-04-29T10:58:14.361Z,19.95
2019-04-29T11:00:28.232Z,20.14
2019-04-29T11:02:37.737Z,20.30
2019-04-29T11:04:48.621Z,20.09
2019-04-29T11:06:56.042Z,20.01
2019-04-29T11:09:14.331Z,20.17
2019-04-29T11:11:23.249Z,20.08
2019-04-29T11:13:30.375Z,20.31
2019-04-29T11:15:38.868Z,20.20
2019-04-29T11:17:47.900Z,20.22
2019-04-29T11:19:55.360Z,20.21
2019-04-29T11:22:03.276Z,20.35
2019-04-29T11:24:12.175Z,20.26
2019-04-29T11:26:24.430Z,20.11
2019-04-29T11:28:32.109Z,20.31
2019-04-29T11:30:40.611Z,20.40
2019-04-29T11:32:54.565Z,20.28
2019-04-29T11:35:06.266Z,20.29
2019-04-29T11:37:17.763Z,20.48
2019-04-29T11:39:23.398Z,20.42
2019-04-29T11:41:32.175Z,20.47
2019-04-29T11:43:40.219Z,20.51
2019-04-29T11:45:47.592Z,20.42
2019-04-29T11:47:54.924Z,20.41
2019-04-29T11:50:18.862Z,20.74
2019-04-29T11:52:28.179Z,20.81
2019-04-29T11:54:35.579Z,20.49
2019-04-29T11:56:43.608Z,20.41
2019-04-29T11:58:59.792Z,20.61
2019-04-29T12:01:37.875Z,20.86
2019-04-29T12:03:41.663Z,20.72
2019-04-29T12:05:53.993Z,20.61
2019-04-29T12:08:05.010Z,20.43
2019-04-29T12:10:12.239Z,20.50
2019-04-29T12:12:22.558Z,20.66
2019-04-29T12:14:38.059Z,20.63
2019-04-29T12:17:01.228Z,20.67
2019-04-29T12:19:26.442Z,20.72
2019-04-29T12:21:35.489Z,20.98
2019-04-29T12:23:42.418Z,20.91
2019-04-29T12:25:49.812Z,20.74
2019-04-29T12:28:01.604Z,20.79
2019-04-29T12:30:10.404Z,20.70
2019-04-29T12:32:20.743Z,20.90
2019-04-29T12:34:46.983Z,20.87
2019-04-29T12:36:56.448Z,20.93
2019-04-29T12:39:42.361Z,20.85
2019-04-29T12:41:48.515Z,20.97
2019-04-29T12:43:54.023Z,21.19
2019-04-29T12:46:04.706Z,21.02
2019-04-29T12:48:23.953Z,20.93
2019-04-29T12:50:22.838Z,21.08
2019-04-29T12:52:30.752Z,20.99
2019-04-29T12:54:41.874Z,20.85
2019-04-29T12:56:49.236Z,20.88
2019-04-29T12:58:59.661Z,20.91
2019-04-29T13:01:10.721Z,20.86
2019-04-29T13:03:19.577Z,21.01
2019-04-29T13:05:57.163Z,21.07
2019-04-29T13:07:54.676Z,21.19
2019-04-29T13:10:13.602Z,21.06
2019-04-29T13:12:20.149Z,21.05
2019-04-29T13:14:33.202Z,21.06
2019-04-29T13:16:40.283Z,21.18
2019-04-29T13:18:48.870Z,21.16
2019-04-29T13:21:09.513Z,21.07
2019-04-29T13:23:17.290Z,21.07
2019-04-29T13:25:19.750Z,20.97
2019-04-29T13:27:26.717Z,21.06
2019-04-29T13:29:36.196Z,21.15
2019-04-29T13:31:43.083Z,21.07
2019-04-29T13:33:52.906Z,21.03
2019-04-29T13:36:00.353Z,21.11
2019-04-29T13:38:07.959Z,21.16
2019-04-29T13:40:16.823Z,21.21
2019-04-29T13:42:24.431Z,21.14
2019-04-29T13:44:32.395Z,21.14
2019-04-29T13:46:51.096Z,21.19
2019-04-29T13:49:13.184Z,21.10
2019-04-29T13:51:34.044Z,21.08
2019-04-29T13:53:26.575Z,21.06
2019-04-29T13:55:47.978Z,21.09
2019-04-29T13:57:45.038Z,21.13
2019-04-29T14:00:10.967Z,21.19
2019-04-29T14:02:31.367Z,21.36
2019-04-29T14:04:37.006Z,21.21
2019-04-29T14:06:56.701Z,21.25
2019-04-29T14:08:55.325Z,21.16
2019-04-29T14:11:03.434Z,21.08
2019-04-29T14:13:16.301Z,21.00
2019-04-29T14:15:21.112Z,20.98
2019-04-29T14:17:31.830Z,20.92
2019-04-29T14:19:42.301Z,20.94
2019-04-29T14:21:48.082Z,21.00
2019-04-29T14:23:54.936Z,20.97
2019-04-29T14:26:01.802Z,20.86
2019-04-29T14:28:15.055Z,20.79
2019-04-29T14:30:37.324Z,20.71
2019-04-29T14:32:37.887Z,20.66
2019-04-29T14:34:53.102Z,20.71
2019-04-29T14:37:18.354Z,20.73
2019-04-29T14:39:15.629Z,20.70
2019-04-29T14:41:20.688Z,20.73
2019-04-29T14:45:55.102Z,20.59
2019-04-29T14:48:20.463Z,20.50
2019-04-29T14:50:30.683Z,20.68
2019-04-29T14:52:36.964Z,20.57
2019-04-29T14:54:43.815Z,20.48
2019-04-29T14:56:50.096Z,20.33
2019-04-29T14:59:06.506Z,20.25
2019-04-29T15:01:17.336Z,20.15
2019-04-29T15:03:25.804Z,19.98
2019-04-29T15:05:34.047Z,19.97
2019-04-29T15:07:42.057Z,20.02
2019-04-29T15:09:58.363Z,20.11
2019-04-29T15:12:07.142Z,20.02
2019-04-29T15:14:31.607Z,20.02
2019-04-29T15:16:40.425Z,19.83
2019-04-29T15:18:50.021Z,19.77
2019-04-29T15:20:56.882Z,19.57
2019-04-29T15:23:03.972Z,19.39
2019-04-29T15:25:12.523Z,19.32
2019-04-29T15:27:18.841Z,19.27
2019-04-29T15:29:26.448Z,19.18
2019-04-29T15:31:32.913Z,19.16
2019-04-29T15:33:39.523Z,19.08
2019-04-29T15:35:46.044Z,19.07
2019-04-29T15:37:52.525Z,19.00
2019-04-29T15:39:58.981Z,18.94
2019-04-29T15:42:06.977Z,18.84
2019-04-29T15:44:20.110Z,18.73
2019-04-29T15:46:23.601Z,18.50
2019-04-29T15:48:30.448Z,18.47
2019-04-29T15:50:39.123Z,18.42
2019-04-29T15:52:45.556Z,18.42
2019-04-29T15:54:52.764Z,18.28
2019-04-29T15:57:03.799Z,18.29
2019-04-29T15:59:09.814Z,18.34
2019-04-29T16:03:27.405Z,18.31
2019-04-29T16:05:54.172Z,18.36
2019-04-29T16:10:21.946Z,17.99
2019-04-29T16:12:33.815Z,17.98
2019-04-29T16:14:40.262Z,18.00
2019-04-29T16:16:48.248Z,17.97
2019-04-29T16:18:55.057Z,17.86
2019-04-29T16:21:01.503Z,17.69
2019-04-29T16:23:08.821Z,17.74
2019-04-29T16:25:16.897Z,17.80
2019-04-29T16:27:23.897Z,17.63
2019-04-29T16:29:30.155Z,17.64
2019-04-29T16:31:36.705Z,17.66
2019-04-29T16:33:47.298Z,17.69
2019-04-29T16:35:51.782Z,17.43
2019-04-29T16:38:05.693Z,17.27
2019-04-29T16:40:11.641Z,17.34
2019-04-29T16:42:22.648Z,17.53
2019-04-29T16:44:36.668Z,17.34
2019-04-29T16:46:38.117Z,17.34
2019-04-29T16:48:45.048Z,17.43
2019-04-29T16:50:53.376Z,17.36
2019-04-29T16:53:00.219Z,17.35
2019-04-29T16:55:30.237Z,17.28
2019-04-29T16:57:39.858Z,17.29
2019-04-29T16:59:48.148Z,17.01
2019-04-29T17:01:55.242Z,16.83
2019-04-29T17:04:05.587Z,16.70
2019-04-29T17:06:12.650Z,16.57
2019-04-29T17:08:22.709Z,16.43
2019-04-29T17:10:38.682Z,16.26
2019-04-29T17:12:49.145Z,16.12
2019-04-29T17:15:04.129Z,16.04
2019-04-29T17:17:09.963Z,15.91
2019-04-29T17:19:17.323Z,15.80
2019-04-29T17:21:24.643Z,15.62
2019-04-29T17:23:31.493Z,15.46
2019-04-29T17:25:39.723Z,15.42
2019-04-29T17:27:54.289Z,15.34
2019-04-29T17:30:07.794Z,15.29
2019-04-29T17:32:24.481Z,15.19
2019-04-29T17:34:56.832Z,15.09
2019-04-29T17:35:15.456Z,18.28
2019-04-29T17:35:17.131Z,18.23
2019-04-29T17:36:42.398Z,15.01
2019-04-29T17:38:50.652Z,14.97
2019-04-29T17:40:58.547Z,14.90
2019-04-29T17:43:08.052Z,14.84
2019-04-29T17:45:26.959Z,14.78
2019-04-29T17:47:37.869Z,14.69
2019-04-29T17:49:52.628Z,14.62
2019-04-29T17:52:02.941Z,14.56
2019-04-29T17:54:10.376Z,14.47
2019-04-29T17:56:37.652Z,14.36
2019-04-29T17:58:51.397Z,14.30
2019-04-29T18:00:59.436Z,14.21
2019-04-29T18:03:25.222Z,14.10
2019-04-29T18:05:52.984Z,14.03
2019-04-29T18:07:51.764Z,13.93
2019-04-29T18:10:01.397Z,13.89
2019-04-29T18:12:10.542Z,13.81
2019-04-29T18:14:21.930Z,13.73
2019-04-29T18:16:30.979Z,13.67
2019-04-29T18:19:00.330Z,13.60
2019-04-29T18:21:14.954Z,13.51
2019-04-29T18:23:31.380Z,13.44
2019-04-29T18:25:44.890Z,13.36
2019-04-29T18:28:00.031Z,13.29
2019-04-29T18:30:06.957Z,13.21
2019-04-29T18:32:15.499Z,13.11
2019-04-29T18:34:23.134Z,13.04
2019-04-29T18:36:29.966Z,13.00
2019-04-29T18:38:42.430Z,12.94
2019-04-29T18:40:49.446Z,12.87
2019-04-29T18:42:56.731Z,12.81
2019-04-29T18:45:05.114Z,12.72
2019-04-29T18:47:20.653Z,12.65
2019-04-29T18:49:26.008Z,12.60
2019-04-29T18:51:34.751Z,12.52
2019-04-29T18:53:42.973Z,12.46
2019-04-29T18:55:50.759Z,12.41
2019-04-29T18:57:58.491Z,12.35
2019-04-29T19:00:12.737Z,12.29
2019-04-29T19:02:17.626Z,12.20
2019-04-29T19:04:27.752Z,12.16
2019-04-29T19:06:36.311Z,12.10
2019-04-29T19:08:45.009Z,12.06
2019-04-29T19:10:55.533Z,12.03
2019-04-29T19:13:05.380Z,11.95
2019-04-29T19:15:15.134Z,11.90
2019-04-29T19:17:23.233Z,11.86
2019-04-29T19:19:34.821Z,11.81
2019-04-29T19:21:40.777Z,11.73
2019-04-29T19:23:52.588Z,11.70
2019-04-29T19:25:59.312Z,11.64
2019-04-29T19:28:12.663Z,11.60
2019-04-29T19:30:20.762Z,11.52
2019-04-29T19:32:25.192Z,11.44
2019-04-29T19:34:42.214Z,11.38
2019-04-29T19:36:41.052Z,11.32
2019-04-29T19:38:48.592Z,11.27
2019-04-29T19:40:55.864Z,11.22
2019-04-29T19:43:03.212Z,11.16
2019-04-29T19:45:13.336Z,11.11
2019-04-29T19:47:19.581Z,11.06
2019-04-29T19:49:26.852Z,11.01
2019-04-29T19:51:35.113Z,10.95
2019-04-29T19:53:47.656Z,10.89
2019-04-29T19:56:01.442Z,10.83
2019-04-29T19:58:00.363Z,10.78
2019-04-29T20:00:10.942Z,10.74
2019-04-29T20:02:20.515Z,10.70
2019-04-29T20:04:32.689Z,10.68
2019-04-29T20:06:41.175Z,10.64
2019-04-29T20:08:57.028Z,10.59
2019-04-29T20:11:11.645Z,10.55
2019-04-29T20:13:09.887Z,10.49
2019-04-29T20:15:17.608Z,10.43
2019-04-29T20:17:36.499Z,10.39
2019-04-29T20:20:00.672Z,10.31
2019-04-29T20:22:09.890Z,10.27
2019-04-29T20:24:23.367Z,10.24
2019-04-29T20:26:31.379Z,10.22
2019-04-29T20:28:39.700Z,10.16
2019-04-29T20:30:50.508Z,10.10
2019-04-29T20:32:56.079Z,10.06
2019-04-29T20:35:07.231Z,10.02
2019-04-29T20:37:16.159Z,9.97
2019-04-29T20:39:23.208Z,9.93
2019-04-29T20:41:40.080Z,9.88
2019-04-29T20:43:41.462Z,9.84
2019-04-29T20:45:48.331Z,9.82
2019-04-29T20:47:56.213Z,9.78
2019-04-29T20:50:03.448Z,9.75
2019-04-29T20:52:13.463Z,9.69
2019-04-29T20:54:27.539Z,9.66
2019-04-29T20:56:35.398Z,9.64
2019-04-29T20:58:44.200Z,9.61
2019-04-29T21:00:50.560Z,9.58
2019-04-29T21:02:57.414Z,9.54
2019-04-29T21:05:06.554Z,9.53
2019-04-29T21:07:18.418Z,9.49
2019-04-29T21:09:27.526Z,9.45
2019-04-29T21:11:35.641Z,9.47
2019-04-29T21:13:55.979Z,9.43
2019-04-29T21:16:05.331Z,9.41
2019-04-29T21:18:14.554Z,9.36
2019-04-29T21:20:20.688Z,9.29
2019-04-29T21:22:27.354Z,9.23
2019-04-29T21:24:35.343Z,9.23
2019-04-29T21:26:44.422Z,9.17
2019-04-29T21:28:50.731Z,9.14
2019-04-29T21:30:58.960Z,9.11
2019-04-29T21:33:08.330Z,9.09
2019-04-29T21:35:19.866Z,9.05
2019-04-29T21:37:32.563Z,9.04
2019-04-29T21:39:41.901Z,9.02
2019-04-29T21:42:01.791Z,8.99
2019-04-29T21:44:08.464Z,8.97
2019-04-29T21:46:18.020Z,8.95
2019-04-29T21:48:25.345Z,8.90
2019-04-29T21:50:36.364Z,8.87
2019-04-29T21:52:41.576Z,8.83
2019-04-29T21:54:49.334Z,8.83
2019-04-29T21:56:56.174Z,8.79
2019-04-29T21:59:09.538Z,8.75
2019-04-29T22:01:11.639Z,8.75
2019-04-29T22:03:24.589Z,8.73
2019-04-29T22:05:27.846Z,8.69
2019-04-29T22:07:35.722Z,8.66
2019-04-29T22:09:47.318Z,8.62
2019-04-29T22:11:52.813Z,8.62
2019-04-29T22:13:59.153Z,8.59
2019-04-29T22:16:11.367Z,8.57
2019-04-29T22:18:18.090Z,8.59
2019-04-29T22:20:28.963Z,8.56
2019-04-29T22:22:37.092Z,8.52
2019-04-29T22:24:43.472Z,8.47
2019-04-29T22:26:50.007Z,8.44
2019-04-29T22:29:01.767Z,8.41
2019-04-29T22:31:07.665Z,8.38
2019-04-29T22:33:15.345Z,8.36
2019-04-29T22:35:22.631Z,8.33
2019-04-29T22:37:29.809Z,8.27
2019-04-29T22:39:36.284Z,8.21
2019-04-29T22:41:43.147Z,8.19
2019-04-29T22:46:09.358Z,8.18
2019-04-29T22:48:19.438Z,8.19
2019-04-29T22:50:23.430Z,8.18
2019-04-29T22:52:31.421Z,8.16
2019-04-29T22:54:40.041Z,8.15
2019-04-29T22:56:53.674Z,8.15
2019-04-29T22:58:58.844Z,8.13
2019-04-29T23:01:06.790Z,8.10
2019-04-29T23:03:16.600Z,8.07
2019-04-29T23:05:27.959Z,8.03
2019-04-29T23:07:35.233Z,7.99
2019-04-29T23:09:41.748Z,7.97
2019-04-29T23:11:49.827Z,7.94
2019-04-29T23:13:56.580Z,7.93
2019-04-29T23:16:02.834Z,7.92
2019-04-29T23:18:10.127Z,7.88
2019-04-29T23:20:28.815Z,7.90
2019-04-29T23:22:43.138Z,7.86
2019-04-29T23:24:51.277Z,7.82
2019-04-29T23:26:57.518Z,7.82
2019-04-29T23:29:07.202Z,7.75
2019-04-29T23:31:12.277Z,7.73
2019-04-29T23:33:23.015Z,7.69
2019-04-29T23:35:27.318Z,7.65
2019-04-29T23:37:35.764Z,7.61
2019-04-29T23:39:45.726Z,7.59
2019-04-29T23:41:52.381Z,7.57
2019-04-29T23:43:59.860Z,7.54
2019-04-29T23:46:07.154Z,7.50
2019-04-29T23:48:13.726Z,7.49
2019-04-29T23:50:20.410Z,7.47
2019-04-29T23:52:27.050Z,7.41
2019-04-29T23:54:44.347Z,7.41
2019-04-29T23:56:52.479Z,7.38
2019-04-29T23:59:05.415Z,7.38
